Time;durP1;ratioP1;P1;durP2;ratioP2;P2;SDS_P1;SDS_P2;PMS_P1;PMS_P2;Temp;Humidity;BMP_temperature;BMP_pressure;BME280_temperature;BME280_humidity;BME280_pressure;Samples;Min_cycle;Max_cycle;Signal;HPM_P1;HPM_P2
2023/05/08 00:02:07;;;;;;;8.95;3.78;;;15.00;1.00;;;;;;5053086;28;20654;-80
2023/05/08 00:04:34;;;;;;;10.27;3.80;;;15.00;1.00;;;;;;5053133;28;20249;-80
2023/05/08 00:07:02;;;;;;;10.70;3.33;;;15.00;1.00;;;;;;5052923;28;20670;-79
2023/05/08 00:09:29;;;;;;;9.07;3.15;;;15.00;1.00;;;;;;5053146;28;20579;-79
2023/05/08 00:11:56;;;;;;;10.13;4.88;;;15.00;1.00;;;;;;5052913;28;20249;-79
2023/05/08 00:14:23;;;;;;;7.28;3.47;;;15.10;99.90;;;;;;5053319;28;20289;-74
2023/05/08 00:16:50;;;;;;;10.20;3.72;;;15.10;1.00;;;;;;5052562;28;20242;-75
2023/05/08 00:19:17;;;;;;;8.95;3.35;;;15.10;99.90;;;;;;5052952;28;20636;-80
2023/05/08 00:21:44;;;;;;;12.13;4.30;;;15.10;1.00;;;;;;5052612;28;20203;-78
2023/05/08 00:24:12;;;;;;;8.80;2.85;;;15.20;1.00;;;;;;5052748;28;20257;-74
2023/05/08 00:26:40;;;;;;;9.82;2.45;;;15.20;1.00;;;;;;5053584;28;20239;-79
2023/05/08 00:29:07;;;;;;;12.85;3.55;;;15.20;99.90;;;;;;5052925;28;20291;-79
2023/05/08 00:31:34;;;;;;;7.45;4.00;;;15.20;1.00;;;;;;5052988;28;20234;-80
2023/05/08 00:34:01;;;;;;;10.20;3.95;;;15.10;1.00;;;;;;5052354;28;20261;-79
2023/05/08 00:36:28;;;;;;;11.15;4.70;;;15.10;99.90;;;;;;5052568;28;20242;-78
2023/05/08 00:38:55;;;;;;;8.93;3.33;;;15.00;99.90;;;;;;5052000;28;20233;-78
2023/05/08 00:41:23;;;;;;;14.40;3.33;;;15.10;99.90;;;;;;5052664;28;20261;-79
2023/05/08 00:43:50;;;;;;;11.00;2.90;;;15.00;99.90;;;;;;5052080;28;20238;-80
2023/05/08 00:46:17;;;;;;;6.50;3.50;;;15.00;99.90;;;;;;5051649;28;20253;-81
2023/05/08 00:48:45;;;;;;;18.38;4.18;;;15.10;99.90;;;;;;5052064;28;20708;-80
2023/05/08 00:51:13;;;;;;;15.70;4.45;;;15.00;99.90;;;;;;5052446;28;20242;-79
2023/05/08 00:53:44;;;;;;;7.38;2.58;;;15.10;1.00;;;;;;5052319;28;20261;-79
2023/05/08 00:56:12;;;;;;;9.45;3.13;;;15.00;99.90;;;;;;5052628;28;20208;-80
2023/05/08 00:58:42;;;;;;;13.32;3.53;;;15.00;1.00;;;;;;5052683;28;20643;-81
2023/05/08 01:01:09;;;;;;;12.07;3.83;;;15.10;1.00;;;;;;5052412;28;20297;-81
2023/05/08 01:03:37;;;;;;;7.90;3.22;;;15.10;99.90;;;;;;5052353;28;20578;-81
2023/05/08 01:06:05;;;;;;;8.85;2.83;;;15.20;1.00;;;;;;5051877;28;20213;-82
2023/05/08 01:08:32;;;;;;;7.80;3.20;;;15.20;1.00;;;;;;5052093;28;20206;-81
2023/05/08 01:11:11;;;;;;;15.73;4.43;;;15.20;99.90;;;;;;5051668;28;20238;-80
2023/05/08 01:13:50;;;;;;;11.07;4.38;;;15.10;99.90;;;;;;5052271;28;20210;-81
2023/05/08 01:16:21;;;;;;;13.70;4.68;;;15.10;99.90;;;;;;5051840;28;20207;-82
2023/05/08 01:18:57;;;;;;;7.47;3.55;;;15.00;99.90;;;;;;5051547;28;20678;-80
2023/05/08 01:21:32;;;;;;;7.03;2.75;;;14.90;99.90;;;;;;5051832;28;20234;-83
2023/05/08 01:24:29;;;;;;;11.48;4.18;;;15.00;99.90;;;;;;5051605;28;20210;-83
2023/05/08 01:27:22;;;;;;;10.73;4.63;;;15.00;99.90;;;;;;5051316;28;20199;-82
2023/05/08 01:30:15;;;;;;;6.43;3.15;;;15.10;99.90;;;;;;5051195;28;20703;-78
2023/05/08 01:32:49;;;;;;;11.02;3.38;;;15.00;99.90;;;;;;5038920;28;20609;-80
2023/05/08 01:35:23;;;;;;;9.55;3.33;;;14.90;99.90;;;;;;5051497;28;20261;-81
2023/05/08 01:38:01;;;;;;;6.95;3.38;;;14.90;99.90;;;;;;5051168;28;20229;-81
2023/05/08 01:40:34;;;;;;;10.05;3.83;;;15.00;99.90;;;;;;5051506;28;20230;-80
2023/05/08 01:43:14;;;;;;;7.03;3.20;;;15.00;99.90;;;;;;5051232;28;20234;-81
2023/05/08 01:45:48;;;;;;;17.27;3.53;;;15.00;99.90;;;;;;5051858;28;20233;-81
2023/05/08 01:48:21;;;;;;;7.30;3.63;;;15.10;99.90;;;;;;5051316;28;20244;-82
2023/05/08 01:50:52;;;;;;;6.80;3.38;;;15.10;99.90;;;;;;5050746;28;20238;-81
2023/05/08 01:53:23;;;;;;;8.40;3.67;;;15.00;99.90;;;;;;5051108;28;20246;-78
2023/05/08 01:55:54;;;;;;;18.48;5.13;;;14.90;99.90;;;;;;5050649;28;20733;-81
2023/05/08 01:58:23;;;;;;;10.80;4.20;;;15.00;99.90;;;;;;5050711;28;20738;-80
2023/05/08 02:00:50;;;;;;;5.88;3.63;;;15.00;99.90;;;;;;5051005;28;20245;-79
2023/05/08 02:03:22;;;;;;;9.00;3.10;;;14.90;99.90;;;;;;5051327;28;20249;-79
2023/05/08 02:05:52;;;;;;;7.53;4.05;;;15.00;99.90;;;;;;5050516;28;20246;-81
2023/05/08 02:08:21;;;;;;;10.70;5.35;;;14.90;99.90;;;;;;5051057;28;20253;-79
2023/05/08 02:10:50;;;;;;;8.82;3.20;;;14.90;99.90;;;;;;5050828;28;20238;-80
2023/05/08 02:13:19;;;;;;;13.57;4.43;;;14.90;99.90;;;;;;5051103;28;20202;-79
2023/05/08 02:15:48;;;;;;;10.07;4.22;;;15.00;99.90;;;;;;5050605;28;20238;-79
2023/05/08 02:18:18;;;;;;;7.28;4.00;;;14.90;99.90;;;;;;5051090;28;20249;-80
2023/05/08 02:20:47;;;;;;;10.00;4.50;;;14.90;99.90;;;;;;5050367;28;20629;-79
2023/05/08 02:23:16;;;;;;;7.55;3.33;;;14.90;99.90;;;;;;5051222;28;20288;-79
2023/05/08 02:25:44;;;;;;;6.15;3.08;;;14.90;99.90;;;;;;5050857;28;20249;-73
2023/05/08 02:28:11;;;;;;;11.57;3.58;;;14.80;99.90;;;;;;5050921;28;20241;-73
2023/05/08 02:30:40;;;;;;;11.85;3.75;;;14.80;1.00;;;;;;5051122;28;20253;-78
2023/05/08 02:33:09;;;;;;;7.68;3.47;;;14.90;99.90;;;;;;5050707;28;20234;-78
2023/05/08 02:35:38;;;;;;;9.80;4.07;;;14.80;99.90;;;;;;5050740;28;20265;-78
2023/05/08 02:38:09;;;;;;;7.78;3.10;;;14.80;99.90;;;;;;5050757;28;20238;-79
2023/05/08 02:40:39;;;;;;;13.18;4.43;;;14.80;99.90;;;;;;5050798;28;20210;-79
2023/05/08 02:43:07;;;;;;;12.55;4.50;;;14.80;99.90;;;;;;5050560;28;20240;-79
2023/05/08 02:45:44;;;;;;;14.80;4.65;;;14.80;1.00;;;;;;5050636;28;20209;-79
2023/05/08 02:48:14;;;;;;;15.27;3.42;;;14.80;99.90;;;;;;5050635;28;20241;-73
2023/05/08 02:50:51;;;;;;;8.50;3.50;;;14.80;1.00;;;;;;5050745;28;20234;-77
2023/05/08 02:53:31;;;;;;;15.02;4.70;;;14.80;1.00;;;;;;5050709;28;20640;-78
2023/05/08 02:56:05;;;;;;;19.05;4.80;;;14.90;1.00;;;;;;5050250;28;20273;-78
2023/05/08 02:58:40;;;;;;;10.20;5.25;;;14.90;1.00;;;;;;5050301;28;20234;-78
2023/05/08 03:01:14;;;;;;;13.77;3.90;;;14.90;1.00;;;;;;5050333;28;20206;-77
2023/05/08 03:03:44;;;;;;;8.82;4.57;;;14.80;99.90;;;;;;5050542;28;20227;-78
2023/05/08 03:06:15;;;;;;;9.15;3.58;;;14.80;1.00;;;;;;5050626;28;20284;-73
2023/05/08 03:08:46;;;;;;;10.43;3.60;;;14.70;1.00;;;;;;5050538;28;20207;-76
2023/05/08 03:11:17;;;;;;;10.90;4.55;;;14.80;1.00;;;;;;5053533;28;20206;-78
2023/05/08 03:13:46;;;;;;;18.67;4.10;;;14.80;1.00;;;;;;5054159;28;20300;-77
2023/05/08 03:16:20;;;;;;;14.40;4.43;;;14.80;1.00;;;;;;5053966;28;20277;-79
2023/05/08 03:18:52;;;;;;;14.07;4.85;;;14.80;1.00;;;;;;5053568;28;20230;-78
2023/05/08 03:21:21;;;;;;;8.27;4.13;;;14.70;1.00;;;;;;5054109;28;20238;-80
2023/05/08 03:23:52;;;;;;;12.02;5.90;;;14.70;1.00;;;;;;5053768;28;20729;-78
2023/05/08 03:26:20;;;;;;;11.35;3.75;;;14.80;1.00;;;;;;5054171;28;20246;-77
2023/05/08 03:28:48;;;;;;;11.88;4.30;;;14.70;1.00;;;;;;5053519;28;20252;-79
2023/05/08 03:31:17;;;;;;;10.82;3.75;;;14.60;1.00;;;;;;5054008;28;20205;-79
2023/05/08 03:33:45;;;;;;;12.90;3.80;;;14.60;1.00;;;;;;5053185;28;20206;-79
2023/05/08 03:36:13;;;;;;;14.15;4.03;;;14.60;1.00;;;;;;5053847;28;20270;-79
2023/05/08 03:38:40;;;;;;;14.07;3.83;;;14.60;1.00;;;;;;5054301;28;20210;-79
2023/05/08 03:41:09;;;;;;;8.88;4.35;;;14.50;99.90;;;;;;5053713;28;20235;-80
2023/05/08 03:43:37;;;;;;;9.57;3.63;;;14.50;1.00;;;;;;5053896;28;20723;-78
2023/05/08 03:46:05;;;;;;;11.38;3.58;;;14.50;1.00;;;;;;5053213;28;20230;-80
2023/05/08 03:48:33;;;;;;;14.35;4.22;;;14.50;1.00;;;;;;5053356;28;20206;-79
2023/05/08 03:51:02;;;;;;;8.13;4.18;;;14.60;1.00;;;;;;5053486;28;20249;-79
2023/05/08 03:53:29;;;;;;;16.40;4.65;;;14.60;1.00;;;;;;5053749;28;20606;-80
2023/05/08 03:55:57;;;;;;;6.45;3.67;;;14.60;1.00;;;;;;5053145;28;20277;-78
2023/05/08 03:58:32;;;;;;;6.80;3.05;;;14.70;1.00;;;;;;5053444;28;20242;-78
2023/05/08 04:01:07;;;;;;;6.50;2.95;;;14.60;1.00;;;;;;5052427;28;20708;-80
2023/05/08 04:03:48;;;;;;;10.38;3.15;;;14.60;1.00;;;;;;5053129;28;20237;-80
2023/05/08 04:06:25;;;;;;;8.65;3.28;;;14.50;99.90;;;;;;5053326;28;20246;-80
2023/05/08 04:09:02;;;;;;;9.00;4.00;;;14.50;99.90;;;;;;5052897;28;20202;-79
2023/05/08 04:11:34;;;;;;;12.93;3.72;;;14.50;1.00;;;;;;5053102;28;20207;-79
2023/05/08 04:14:05;;;;;;;10.35;3.28;;;14.50;1.00;;;;;;5052824;28;20231;-78
2023/05/08 04:16:38;;;;;;;7.15;3.60;;;14.40;1.00;;;;;;5052549;28;20292;-80
2023/05/08 04:19:11;;;;;;;6.60;3.60;;;14.40;1.00;;;;;;5052751;28;20242;-79
2023/05/08 04:21:42;;;;;;;15.15;4.15;;;14.40;99.90;;;;;;5053106;28;20721;-78
2023/05/08 04:24:14;;;;;;;11.10;4.70;;;14.40;1.00;;;;;;5053010;28;20199;-79
2023/05/08 04:26:43;;;;;;;9.10;3.28;;;14.40;1.00;;;;;;5052761;28;20245;-73
2023/05/08 04:29:11;;;;;;;8.13;4.07;;;14.50;1.00;;;;;;5053376;28;20662;-81
2023/05/08 04:31:40;;;;;;;14.50;4.03;;;14.60;1.00;;;;;;5052968;28;20234;-80
2023/05/08 04:34:08;;;;;;;6.40;2.95;;;14.60;1.00;;;;;;5052572;28;20674;-79
2023/05/08 04:36:35;;;;;;;6.97;3.78;;;14.60;1.00;;;;;;5052933;28;20238;-80
2023/05/08 04:39:02;;;;;;;6.32;3.83;;;14.70;1.00;;;;;;5052290;28;20245;-80
2023/05/08 04:41:29;;;;;;;11.95;3.53;;;14.60;99.90;;;;;;5052638;28;20203;-79
2023/05/08 04:43:56;;;;;;;12.23;4.43;;;14.60;99.90;;;;;;5052205;28;20678;-80
2023/05/08 04:46:24;;;;;;;8.52;3.72;;;14.60;1.00;;;;;;5052354;28;20631;-80
2023/05/08 04:48:51;;;;;;;10.00;3.75;;;14.60;1.00;;;;;;5052055;28;20238;-80
2023/05/08 04:51:18;;;;;;;15.00;5.18;;;14.60;1.00;;;;;;5052827;28;20234;-79
2023/05/08 04:53:45;;;;;;;12.23;4.40;;;14.60;1.00;;;;;;5051587;28;20238;-81
2023/05/08 04:56:12;;;;;;;8.38;3.85;;;14.50;1.00;;;;;;5052316;28;20717;-79
2023/05/08 04:58:39;;;;;;;17.13;4.55;;;14.50;1.00;;;;;;5052361;28;20203;-81
2023/05/08 05:01:06;;;;;;;10.90;4.00;;;14.50;1.00;;;;;;5051686;28;20289;-82
2023/05/08 05:03:34;;;;;;;12.88;4.15;;;14.50;1.00;;;;;;5052212;28;20217;-81
2023/05/08 05:06:02;;;;;;;9.88;3.75;;;14.40;1.00;;;;;;5051902;28;20217;-81
2023/05/08 05:08:29;;;;;;;7.93;3.42;;;14.40;99.90;;;;;;5052109;28;20678;-82
2023/05/08 05:10:56;;;;;;;9.77;3.78;;;14.50;1.00;;;;;;5051822;28;20206;-82
2023/05/08 05:13:23;;;;;;;8.30;3.47;;;14.50;99.90;;;;;;5051810;28;20678;-82
2023/05/08 05:15:53;;;;;;;11.80;4.50;;;14.50;99.90;;;;;;5051333;28;20269;-81
2023/05/08 05:18:20;;;;;;;11.45;4.68;;;14.50;1.00;;;;;;5052229;28;20206;-81
2023/05/08 05:20:48;;;;;;;13.65;4.95;;;14.50;99.90;;;;;;5051677;28;20241;-78
2023/05/08 05:23:15;;;;;;;9.18;4.00;;;14.40;99.90;;;;;;5051725;28;20713;-82
2023/05/08 05:25:42;;;;;;;10.35;4.03;;;14.40;99.90;;;;;;5051906;28;20237;-79
2023/05/08 05:28:09;;;;;;;10.82;2.88;;;14.40;99.90;;;;;;5051786;28;20245;-80
2023/05/08 05:30:36;;;;;;;8.05;3.40;;;14.40;99.90;;;;;;5052178;28;20210;-80
2023/05/08 05:33:03;;;;;;;9.45;3.70;;;14.40;99.90;;;;;;5050768;28;20675;-82
2023/05/08 05:35:30;;;;;;;8.82;2.67;;;14.40;99.90;;;;;;5051741;28;20234;-81
2023/05/08 05:37:58;;;;;;;9.52;3.22;;;14.40;99.90;;;;;;5051175;28;20242;-81
2023/05/08 05:40:25;;;;;;;5.55;3.03;;;14.40;99.90;;;;;;5051489;28;20206;-80
2023/05/08 05:42:52;;;;;;;8.48;2.92;;;14.50;99.90;;;;;;5050846;28;20241;-80
2023/05/08 05:45:19;;;;;;;5.22;2.28;;;14.50;99.90;;;;;;5051695;28;20245;-82
2023/05/08 05:47:48;;;;;;;6.47;2.55;;;14.50;99.90;;;;;;5051230;28;20238;-80
2023/05/08 05:50:17;;;;;;;5.95;2.72;;;14.60;99.90;;;;;;5051472;28;20285;-82
2023/05/08 05:52:44;;;;;;;6.22;2.13;;;14.60;99.90;;;;;;5051023;28;20206;-80
2023/05/08 05:55:12;;;;;;;3.97;2.55;;;14.50;99.90;;;;;;5051461;28;22341;-80
2023/05/08 05:57:39;;;;;;;6.40;2.28;;;14.50;99.90;;;;;;5051709;28;20242;-81
2023/05/08 06:00:07;;;;;;;7.00;3.13;;;14.50;99.90;;;;;;5051239;28;20238;-79
2023/05/08 06:02:36;;;;;;;7.57;2.70;;;14.50;99.90;;;;;;5051132;28;20211;-81
2023/05/08 06:05:03;;;;;;;5.28;2.25;;;14.50;99.90;;;;;;5050792;28;21047;-81
2023/05/08 06:07:30;;;;;;;3.47;2.13;;;14.40;99.90;;;;;;5051088;28;20568;-78
2023/05/08 06:09:57;;;;;;;7.70;3.15;;;14.40;99.90;;;;;;5050519;28;20697;-77
2023/05/08 06:12:27;;;;;;;5.63;3.13;;;14.50;99.90;;;;;;5050926;28;20253;-79
2023/05/08 06:14:54;;;;;;;6.65;2.47;;;14.70;99.90;;;;;;5050724;28;20203;-77
2023/05/08 06:17:21;;;;;;;6.47;1.85;;;14.90;99.90;;;;;;5050853;28;20745;-79
2023/05/08 06:19:49;;;;;;;4.95;2.25;;;15.10;99.90;;;;;;5050669;28;20203;-77
2023/05/08 06:22:17;;;;;;;3.50;1.77;;;15.30;99.90;;;;;;5050850;28;20207;-79
2023/05/08 06:24:44;;;;;;;5.05;1.95;;;15.30;99.90;;;;;;5050343;28;20206;-78
2023/05/08 06:27:11;;;;;;;3.58;1.98;;;15.50;99.90;;;;;;5050918;28;20242;-72
2023/05/08 06:29:39;;;;;;;5.93;2.08;;;15.60;99.90;;;;;;5051019;28;20749;-78
2023/05/08 06:32:06;;;;;;;2.92;1.52;;;15.60;99.90;;;;;;5051363;28;20202;-79
2023/05/08 06:34:33;;;;;;;3.60;1.95;;;15.60;99.90;;;;;;5050881;28;20230;-73
2023/05/08 06:37:00;;;;;;;4.20;1.70;;;15.60;99.90;;;;;;5049994;28;20262;-77
2023/05/08 06:39:27;;;;;;;3.08;1.10;;;15.50;99.90;;;;;;5050894;28;20230;-74
2023/05/08 06:41:54;;;;;;;4.20;1.55;;;15.40;99.90;;;;;;5050023;28;20242;-74
2023/05/08 06:44:21;;;;;;;3.42;1.20;;;15.50;99.90;;;;;;5050975;28;20207;-74
2023/05/08 06:46:49;;;;;;;2.80;1.40;;;15.60;99.90;;;;;;5054350;28;20627;-77
2023/05/08 06:49:16;;;;;;;1.27;1.17;;;15.70;99.90;;;;;;5054747;28;20250;-74
2023/05/08 06:51:43;;;;;;;4.30;1.65;;;15.80;99.90;;;;;;5054164;28;20248;-73
2023/05/08 06:54:10;;;;;;;6.40;1.55;;;16.10;99.90;;;;;;5055099;28;20344;-71
2023/05/08 06:56:37;;;;;;;4.07;1.17;;;16.40;99.90;;;;;;5054760;28;20689;-72
2023/05/08 06:59:04;;;;;;;4.00;1.50;;;16.50;99.90;;;;;;5054231;28;20225;-72
2023/05/08 07:01:31;;;;;;;2.33;1.13;;;16.60;99.90;;;;;;5054388;28;20246;-72
2023/05/08 07:04:00;;;;;;;2.10;1.02;;;16.70;99.90;;;;;;5054056;28;20675;-77
2023/05/08 07:06:27;;;;;;;3.20;1.33;;;16.70;99.90;;;;;;5054713;28;20199;-73
2023/05/08 07:08:54;;;;;;;5.10;2.65;;;16.70;99.90;;;;;;5053928;28;20208;-72
2023/05/08 07:11:21;;;;;;;4.47;2.05;;;16.60;99.90;;;;;;5053982;28;20649;-73
2023/05/08 07:13:48;;;;;;;5.72;1.50;;;16.50;99.90;;;;;;5054004;28;20202;-77
2023/05/08 07:16:15;;;;;;;2.05;1.25;;;16.40;99.90;;;;;;5054109;28;20261;-73
2023/05/08 07:18:43;;;;;;;2.22;1.25;;;16.40;99.90;;;;;;5054117;28;20249;-73
2023/05/08 07:21:11;;;;;;;2.25;1.90;;;16.40;99.90;;;;;;5054742;28;20213;-78
2023/05/08 07:23:38;;;;;;;6.32;1.50;;;16.50;99.90;;;;;;5054269;28;20690;-72
2023/05/08 07:26:05;;;;;;;4.00;1.15;;;16.60;99.90;;;;;;5053378;28;20682;-72
2023/05/08 07:28:32;;;;;;;5.43;1.50;;;16.70;99.90;;;;;;5053998;28;20292;-72
2023/05/08 07:30:59;;;;;;;2.92;1.45;;;16.70;99.90;;;;;;5053487;28;20249;-74
2023/05/08 07:33:25;;;;;;;3.40;1.40;;;16.90;99.90;;;;;;5053846;28;20648;-73
2023/05/08 07:35:52;;;;;;;4.40;2.45;;;17.00;99.90;;;;;;5053462;28;20267;-73
2023/05/08 07:38:21;;;;;;;2.03;1.35;;;17.20;99.90;;;;;;5053654;28;20206;-72
2023/05/08 07:40:50;;;;;;;3.50;1.60;;;17.30;99.90;;;;;;5053490;28;20242;-72
2023/05/08 07:43:17;;;;;;;4.90;1.58;;;17.50;99.90;;;;;;5053731;28;20199;-78
2023/05/08 07:45:44;;;;;;;4.22;1.92;;;17.20;99.90;;;;;;5053288;28;20241;-73
2023/05/08 07:48:11;;;;;;;5.07;1.73;;;17.00;99.90;;;;;;5054101;28;20246;-76
2023/05/08 07:50:37;;;;;;;5.50;1.65;;;16.90;99.90;;;;;;5054128;28;20209;-76
2023/05/08 07:53:05;;;;;;;4.90;1.65;;;16.90;99.90;;;;;;5053114;28;20700;-73
2023/05/08 07:55:33;;;;;;;4.07;2.05;;;17.00;99.90;;;;;;5053052;28;20203;-72
2023/05/08 07:58:00;;;;;;;2.53;1.60;;;17.10;99.90;;;;;;5053190;28;20309;-77
2023/05/08 08:00:28;;;;;;;2.55;1.80;;;17.10;99.90;;;;;;5053090;28;20238;-78
2023/05/08 08:02:56;;;;;;;3.65;1.58;;;17.20;99.90;;;;;;5052814;28;20207;-77
2023/05/08 08:05:23;;;;;;;1.50;1.00;;;17.40;99.90;;;;;;5053547;28;20207;-76
2023/05/08 08:07:50;;;;;;;3.90;1.73;;;17.40;99.90;;;;;;5052704;28;20238;-77
2023/05/08 08:10:17;;;;;;;9.15;2.22;;;17.70;99.90;;;;;;5053253;28;20203;-77
2023/05/08 08:12:45;;;;;;;6.35;1.75;;;17.70;99.90;;;;;;5052445;28;20242;-78
2023/05/08 08:15:12;;;;;;;6.57;1.98;;;17.70;99.90;;;;;;5053382;28;20249;-73
2023/05/08 08:17:39;;;;;;;2.38;1.40;;;17.80;99.90;;;;;;5053234;28;20284;-77
2023/05/08 08:20:07;;;;;;;8.05;2.17;;;18.20;99.90;;;;;;5053145;28;20230;-76
2023/05/08 08:22:35;;;;;;;2.08;1.48;;;18.10;99.90;;;;;;5052795;28;20249;-76
2023/05/08 08:25:02;;;;;;;5.57;3.20;;;18.00;99.90;;;;;;5052308;28;20203;-76
2023/05/08 08:27:29;;;;;;;3.08;1.30;;;18.40;99.90;;;;;;5052870;28;20209;-77
2023/05/08 08:29:57;;;;;;;3.22;1.55;;;18.40;99.90;;;;;;5052666;28;20260;-76
2023/05/08 08:32:24;;;;;;;3.67;1.30;;;18.60;99.90;;;;;;5052870;28;20242;-75
2023/05/08 08:34:51;;;;;;;5.80;1.55;;;18.70;99.90;;;;;;5052466;28;20234;-76
2023/05/08 08:37:18;;;;;;;3.00;0.93;;;18.60;99.90;;;;;;5052489;28;20321;-80
2023/05/08 08:39:47;;;;;;;1.30;1.20;;;18.60;99.90;;;;;;5052268;28;20655;-73
2023/05/08 08:42:14;;;;;;;2.30;1.17;;;18.70;99.90;;;;;;5052714;28;20202;-80
2023/05/08 08:44:41;;;;;;;2.92;1.83;;;18.70;99.90;;;;;;5052892;28;20234;-73
2023/05/08 08:47:11;;;;;;;2.90;1.55;;;18.30;99.90;;;;;;5053180;28;20238;-76
2023/05/08 08:49:43;;;;;;;1.95;1.50;;;18.00;99.90;;;;;;5052589;28;20681;-75
2023/05/08 08:52:19;;;;;;;3.53;1.48;;;17.90;99.90;;;;;;5052488;28;20681;-74
2023/05/08 08:54:49;;;;;;;3.20;1.17;;;18.10;99.90;;;;;;5052006;28;20617;-75
2023/05/08 08:57:16;;;;;;;6.82;1.65;;;18.50;99.90;;;;;;5052230;28;20679;-79
2023/05/08 08:59:44;;;;;;;4.72;1.20;;;18.80;99.90;;;;;;5051961;28;20245;-73
2023/05/08 09:02:16;;;;;;;1.85;1.02;;;18.80;99.90;;;;;;5052184;28;20253;-73
2023/05/08 09:04:43;;;;;;;1.67;1.15;;;18.70;99.90;;;;;;5051946;28;20597;-73
2023/05/08 09:07:12;;;;;;;3.85;1.30;;;18.40;99.90;;;;;;5051634;28;20253;-78
2023/05/08 09:09:43;;;;;;;1.58;1.20;;;18.40;99.90;;;;;;5052582;28;20632;-75
2023/05/08 09:12:10;;;;;;;3.90;1.15;;;19.10;99.90;;;;;;5052087;28;20199;-75
2023/05/08 09:14:37;;;;;;;1.80;0.90;;;19.00;99.90;;;;;;5052400;28;20245;-77
2023/05/08 09:17:04;;;;;;;1.52;0.98;;;18.80;99.90;;;;;;5051536;28;20269;-80
2023/05/08 09:19:33;;;;;;;2.00;0.90;;;18.80;99.90;;;;;;5051926;28;20246;-79
2023/05/08 09:22:00;;;;;;;2.55;1.10;;;19.60;99.90;;;;;;5051316;28;20731;-81
2023/05/08 09:24:57;;;;;;;4.82;1.65;;;19.10;99.90;;;;;;5051955;28;20247;-78
2023/05/08 09:27:25;;;;;;;3.30;1.25;;;18.80;99.90;;;;;;5051864;28;20242;-74
2023/05/08 09:30:04;;;;;;;2.30;0.90;;;18.60;99.90;;;;;;5051330;28;20235;-74
2023/05/08 09:32:31;;;;;;;4.18;1.23;;;18.60;99.90;;;;;;5052009;28;20252;-74
2023/05/08 09:35:00;;;;;;;2.65;1.13;;;19.30;99.90;;;;;;5050974;28;20674;-73
2023/05/08 09:37:28;;;;;;;1.25;1.00;;;20.10;99.90;;;;;;5051343;28;20686;-74
2023/05/08 09:40:14;;;;;;;2.65;1.30;;;22.20;99.90;;;;;;5051132;28;20203;-73
2023/05/08 09:42:41;;;;;;;3.88;1.88;;;23.30;99.90;;;;;;5051806;28;20195;-76
2023/05/08 09:45:09;;;;;;;3.20;1.77;;;22.00;99.90;;;;;;5051992;28;20202;-75
2023/05/08 09:47:38;;;;;;;1.92;1.13;;;22.00;99.90;;;;;;5051372;28;20211;-75
2023/05/08 09:50:08;;;;;;;2.53;1.40;;;22.30;99.90;;;;;;5050973;28;20563;-73
2023/05/08 09:52:36;;;;;;;3.95;1.10;;;21.60;99.90;;;;;;5051398;28;20242;-79
2023/05/08 09:55:05;;;;;;;1.40;0.82;;;20.60;99.90;;;;;;5050837;28;20253;-74
2023/05/08 09:57:35;;;;;;;4.07;1.55;;;20.20;99.90;;;;;;5051237;28;20274;-76
2023/05/08 10:00:07;;;;;;;3.72;1.20;;;20.20;99.90;;;;;;5050792;28;20207;-75
2023/05/08 10:02:34;;;;;;;7.57;2.83;;;21.40;99.90;;;;;;5051101;28;20302;-79
2023/05/08 10:05:01;;;;;;;2.00;0.80;;;22.60;99.90;;;;;;5050680;28;20238;-78
2023/05/08 10:07:31;;;;;;;3.10;1.63;;;22.10;99.90;;;;;;5051152;28;20268;-75
2023/05/08 10:10:00;;;;;;;1.98;1.20;;;21.30;99.90;;;;;;5050662;28;20239;-80
2023/05/08 10:12:27;;;;;;;2.63;1.27;;;20.20;99.90;;;;;;5051278;28;20207;-77
2023/05/08 10:14:54;;;;;;;4.03;0.77;;;19.40;99.90;;;;;;5050783;28;20203;-76
2023/05/08 10:17:28;;;;;;;2.45;1.25;;;18.90;99.90;;;;;;5050969;28;20265;-73
2023/05/08 10:20:00;;;;;;;1.67;1.00;;;19.50;99.90;;;;;;5050116;28;20231;-76
2023/05/08 10:22:29;;;;;;;2.58;1.23;;;21.70;99.90;;;;;;5050907;28;20207;-73
2023/05/08 10:24:59;;;;;;;1.48;1.15;;;23.20;99.90;;;;;;5050301;28;20206;-76
2023/05/08 10:27:38;;;;;;;4.00;1.15;;;23.50;99.90;;;;;;5050732;28;20605;-80
2023/05/08 10:30:08;;;;;;;1.52;0.90;;;23.10;99.90;;;;;;5050475;28;20290;-73
2023/05/08 10:32:40;;;;;;;4.57;1.00;;;21.20;99.90;;;;;;5050566;28;20249;-77
2023/05/08 10:35:10;;;;;;;3.20;1.23;;;20.20;99.90;;;;;;5050514;28;20207;-75
2023/05/08 10:37:38;;;;;;;2.85;1.10;;;19.60;99.90;;;;;;5051005;28;20274;-76
2023/05/08 10:40:08;;;;;;;1.75;1.00;;;19.70;99.90;;;;;;5050378;28;20234;-77
2023/05/08 10:42:36;;;;;;;2.28;1.00;;;19.40;99.90;;;;;;5050819;28;20647;-78
2023/05/08 10:45:04;;;;;;;1.88;0.85;;;19.30;99.90;;;;;;5050307;28;20207;-76
2023/05/08 10:47:44;;;;;;;3.65;1.20;;;19.60;99.90;;;;;;5050668;28;20207;-76
2023/05/08 10:50:22;;;;;;;3.85;1.27;;;20.30;99.90;;;;;;5050569;28;20232;-73
2023/05/08 10:52:55;;;;;;;3.30;1.38;;;20.40;99.90;;;;;;5050376;28;20206;-76
2023/05/08 10:55:29;;;;;;;5.45;1.67;;;20.90;99.90;;;;;;5050650;28;20664;-77
2023/05/08 10:58:13;;;;;;;4.20;1.50;;;20.90;99.90;;;;;;5050297;28;20245;-79
2023/05/08 11:01:15;;;;;;;1.73;1.17;;;20.60;99.90;;;;;;5050784;28;20293;-80
2023/05/08 11:03:49;;;;;;;2.33;1.25;;;19.80;99.90;;;;;;5050484;28;20248;-74
2023/05/08 11:06:16;;;;;;;2.30;1.02;;;19.50;99.90;;;;;;5050530;28;20257;-77
2023/05/08 11:08:47;;;;;;;3.00;1.33;;;19.30;99.90;;;;;;5050354;28;20242;-76
2023/05/08 11:11:25;;;;;;;2.60;0.98;;;19.50;99.90;;;;;;5050300;28;20700;-75
2023/05/08 11:13:58;;;;;;;2.95;1.20;;;19.60;99.90;;;;;;5050150;28;20203;-77
2023/05/08 11:17:01;;;;;;;2.90;1.58;;;19.90;99.90;;;;;;5050415;28;20199;-75
2023/05/08 11:19:29;;;;;;;4.20;1.58;;;20.30;99.90;;;;;;5050199;28;20242;-74
2023/05/08 11:22:24;;;;;;;3.75;1.92;;;20.50;99.90;;;;;;5050096;28;20243;-74
2023/05/08 11:24:54;;;;;;;4.50;1.52;;;20.60;99.90;;;;;;5036837;28;20209;-73
2023/05/08 11:28:11;;;;;;;2.50;1.40;;;20.70;99.90;;;;;;5050166;28;20246;-77
2023/05/08 11:30:40;;;;;;;3.20;1.42;;;20.60;99.90;;;;;;5050795;28;20289;-78
2023/05/08 11:33:31;;;;;;;3.20;1.17;;;20.70;99.90;;;;;;5054097;28;20558;-77
2023/05/08 11:36:00;;;;;;;5.40;1.58;;;20.30;99.90;;;;;;5053531;28;20250;-73
2023/05/08 11:38:33;;;;;;;4.43;1.85;;;20.00;99.90;;;;;;5053835;28;20234;-73
2023/05/08 11:41:05;;;;;;;2.35;0.90;;;20.00;99.90;;;;;;5053515;28;20238;-73
2023/05/08 11:43:49;;;;;;;5.00;1.80;;;20.00;99.90;;;;;;5054127;28;20290;-74
2023/05/08 11:46:19;;;;;;;4.20;1.30;;;20.40;99.90;;;;;;5053434;28;20631;-72
2023/05/08 11:48:46;;;;;;;3.88;1.55;;;20.70;99.90;;;;;;5053340;28;20290;-74
2023/05/08 11:51:13;;;;;;;3.72;1.85;;;20.80;99.90;;;;;;5053694;28;20231;-73
2023/05/08 11:53:40;;;;;;;3.47;1.90;;;20.80;99.90;;;;;;5053905;28;20205;-73
2023/05/08 11:56:08;;;;;;;2.15;0.98;;;20.90;99.90;;;;;;5053465;28;20624;-74
2023/05/08 11:58:36;;;;;;;3.70;1.55;;;20.70;99.90;;;;;;5053383;28;20717;-73
2023/05/08 12:01:03;;;;;;;6.57;1.67;;;20.60;99.90;;;;;;5052688;28;20203;-73
2023/05/08 12:03:30;;;;;;;2.95;1.38;;;20.40;99.90;;;;;;5053407;28;20207;-74
2023/05/08 12:05:58;;;;;;;3.92;1.23;;;20.10;99.90;;;;;;5052897;28;20203;-76
2023/05/08 12:08:26;;;;;;;2.83;1.20;;;20.20;99.90;;;;;;5053234;28;20246;-74
2023/05/08 12:10:54;;;;;;;3.08;1.38;;;20.50;99.90;;;;;;5052855;28;20648;-73
2023/05/08 12:13:22;;;;;;;4.85;1.80;;;20.70;99.90;;;;;;5053183;28;20241;-74
2023/05/08 12:15:52;;;;;;;4.78;1.85;;;20.80;99.90;;;;;;5052585;28;20697;-73
2023/05/08 12:18:20;;;;;;;3.90;1.30;;;20.70;99.90;;;;;;5053002;28;20227;-74
2023/05/08 12:20:51;;;;;;;2.83;1.05;;;20.70;99.90;;;;;;5052591;28;20250;-74
2023/05/08 12:23:18;;;;;;;3.88;2.13;;;20.70;99.90;;;;;;5053049;28;20231;-74
2023/05/08 12:25:45;;;;;;;3.83;1.58;;;20.40;99.90;;;;;;5052796;28;20245;-74
2023/05/08 12:28:12;;;;;;;1.83;0.88;;;20.80;99.90;;;;;;5052864;28;20238;-73
2023/05/08 12:30:39;;;;;;;3.75;1.60;;;20.90;99.90;;;;;;5053158;28;20242;-74
2023/05/08 12:33:08;;;;;;;1.30;1.20;;;21.10;99.90;;;;;;5052671;28;20202;-74
2023/05/08 12:35:36;;;;;;;1.85;1.10;;;21.10;99.90;;;;;;5052711;28;20242;-74
2023/05/08 12:38:05;;;;;;;2.58;1.17;;;20.80;99.90;;;;;;5052135;28;20313;-74
2023/05/08 12:40:34;;;;;;;2.75;1.63;;;21.00;99.90;;;;;;5052774;28;20281;-73
2023/05/08 12:43:02;;;;;;;3.55;1.95;;;20.80;99.90;;;;;;5051941;28;20703;-73
2023/05/08 12:45:32;;;;;;;2.67;1.38;;;20.80;99.90;;;;;;5052604;28;20233;-74
2023/05/08 12:48:00;;;;;;;2.08;1.60;;;20.60;99.90;;;;;;5052005;28;20298;-74
2023/05/08 12:50:31;;;;;;;2.15;1.20;;;20.70;99.90;;;;;;5052669;28;20225;-73
2023/05/08 12:53:03;;;;;;;2.17;1.20;;;21.20;99.90;;;;;;5052119;28;20250;-74
2023/05/08 12:55:32;;;;;;;2.60;1.02;;;21.20;99.90;;;;;;5052317;28;20207;-73
2023/05/08 12:58:01;;;;;;;4.07;1.50;;;21.40;99.90;;;;;;5051700;28;20266;-73
2023/05/08 13:00:36;;;;;;;2.90;1.55;;;21.50;99.90;;;;;;5052105;28;20202;-74